sensor_id;sensor_type;location;lat;lon;timestamp;pressure;altitude;pressure_sealevel;temperature
27986;BMP280;15453;53.692;10.168;2023-02-28T00:00:13;102865.56;;;7.51
27986;BMP280;15453;53.692;10.168;2023-02-28T00:02:40;102864.75;;;7.51
27986;BMP280;15453;53.692;10.168;2023-02-28T00:05:07;102859.47;;;7.49
27986;BMP280;15453;53.692;10.168;2023-02-28T00:07:32;102862.38;;;7.48
27986;BMP280;15453;53.692;10.168;2023-02-28T00:09:58;102858.94;;;7.46
27986;BMP280;15453;53.692;10.168;2023-02-28T00:12:24;102866.47;;;7.44
27986;BMP280;15453;53.692;10.168;2023-02-28T00:14:49;102861.38;;;7.41
27986;BMP280;15453;53.692;10.168;2023-02-28T00:17:15;102854.56;;;7.37
27986;BMP280;15453;53.692;10.168;2023-02-28T00:19:42;102863.13;;;7.34
27986;BMP280;15453;53.692;10.168;2023-02-28T00:22:08;102866.38;;;7.29
27986;BMP280;15453;53.692;10.168;2023-02-28T00:24:33;102860.44;;;7.26
27986;BMP280;15453;53.692;10.168;2023-02-28T00:26:58;102856.34;;;7.22
27986;BMP280;15453;53.692;10.168;2023-02-28T00:29:23;102871.34;;;7.18
27986;BMP280;15453;53.692;10.168;2023-02-28T00:31:49;102871.34;;;7.18
27986;BMP280;15453;53.692;10.168;2023-02-28T00:34:14;102859.28;;;7.12
27986;BMP280;15453;53.692;10.168;2023-02-28T00:36:39;102866.97;;;7.09
27986;BMP280;15453;53.692;10.168;2023-02-28T00:39:05;102856.41;;;7.06
27986;BMP280;15453;53.692;10.168;2023-02-28T00:41:31;102855.72;;;7.04
27986;BMP280;15453;53.692;10.168;2023-02-28T00:43:56;102859.63;;;7.01
27986;BMP280;15453;53.692;10.168;2023-02-28T00:46:21;102860.84;;;6.99
27986;BMP280;15453;53.692;10.168;2023-02-28T00:48:47;102867.31;;;6.98
27986;BMP280;15453;53.692;10.168;2023-02-28T00:51:12;102880.47;;;6.94
27986;BMP280;15453;53.692;10.168;2023-02-28T00:53:37;102869.56;;;6.94
27986;BMP280;15453;53.692;10.168;2023-02-28T00:56:03;102868.88;;;6.92
27986;BMP280;15453;53.692;10.168;2023-02-28T00:58:28;102868.03;;;6.92
27986;BMP280;15453;53.692;10.168;2023-02-28T01:00:54;102870.75;;;6.92
27986;BMP280;15453;53.692;10.168;2023-02-28T01:03:20;102872.78;;;6.90
27986;BMP280;15453;53.692;10.168;2023-02-28T01:05:46;102874.47;;;6.91
27986;BMP280;15453;53.692;10.168;2023-02-28T01:08:13;102884.38;;;6.92
27986;BMP280;15453;53.692;10.168;2023-02-28T01:10:39;102884.38;;;6.92
27986;BMP280;15453;53.692;10.168;2023-02-28T01:13:05;102884.72;;;6.89
27986;BMP280;15453;53.692;10.168;2023-02-28T01:15:30;102878.25;;;6.90
27986;BMP280;15453;53.692;10.168;2023-02-28T01:17:57;102878.25;;;6.90
27986;BMP280;15453;53.692;10.168;2023-02-28T01:20:22;102876.72;;;6.87
27986;BMP280;15453;53.692;10.168;2023-02-28T01:22:48;102882.16;;;6.87
27986;BMP280;15453;53.692;10.168;2023-02-28T01:25:13;102874.84;;;6.88
27986;BMP280;15453;53.692;10.168;2023-02-28T01:27:38;102868.72;;;6.86
27986;BMP280;15453;53.692;10.168;2023-02-28T01:30:05;102875.69;;;6.88
27986;BMP280;15453;53.692;10.168;2023-02-28T01:32:31;102875.69;;;6.88
27986;BMP280;15453;53.692;10.168;2023-02-28T01:34:56;102871.59;;;6.84
27986;BMP280;15453;53.692;10.168;2023-02-28T01:37:21;102879.94;;;6.83
27986;BMP280;15453;53.692;10.168;2023-02-28T01:39:47;102882.00;;;6.81
27986;BMP280;15453;53.692;10.168;2023-02-28T01:42:12;102872.97;;;6.80
27986;BMP280;15453;53.692;10.168;2023-02-28T01:47:29;102871.78;;;6.75
27986;BMP280;15453;53.692;10.168;2023-02-28T01:49:55;102864.66;;;6.74
27986;BMP280;15453;53.692;10.168;2023-02-28T01:52:21;102874.50;;;6.75
27986;BMP280;15453;53.692;10.168;2023-02-28T01:54:51;102874.50;;;6.75
27986;BMP280;15453;53.692;10.168;2023-02-28T01:57:22;102869.59;;;6.70
27986;BMP280;15453;53.692;10.168;2023-02-28T01:59:57;102876.75;;;6.71
27986;BMP280;15453;53.692;10.168;2023-02-28T02:02:25;102867.91;;;6.69
27986;BMP280;15453;53.692;10.168;2023-02-28T02:04:54;102872.31;;;6.70
27986;BMP280;15453;53.692;10.168;2023-02-28T02:07:21;102870.63;;;6.69
27986;BMP280;15453;53.692;10.168;2023-02-28T02:09:46;102871.47;;;6.70
27986;BMP280;15453;53.692;10.168;2023-02-28T02:12:31;102862.63;;;6.68
27986;BMP280;15453;53.692;10.168;2023-02-28T02:15:12;102874.53;;;6.67
27986;BMP280;15453;53.692;10.168;2023-02-28T02:17:42;102873.69;;;6.66
27986;BMP280;15453;53.692;10.168;2023-02-28T02:20:16;102869.94;;;6.67
27986;BMP280;15453;53.692;10.168;2023-02-28T02:25:54;102862.78;;;6.66
27986;BMP280;15453;53.692;10.168;2023-02-28T02:31:31;102861.75;;;6.67
27986;BMP280;15453;53.692;10.168;2023-02-28T02:34:23;102862.97;;;6.65
27986;BMP280;15453;53.692;10.168;2023-02-28T02:37:02;102861.09;;;6.65
27986;BMP280;15453;53.692;10.168;2023-02-28T02:39:47;102852.75;;;6.67
27986;BMP280;15453;53.692;10.168;2023-02-28T02:42:23;102850.88;;;6.67
27986;BMP280;15453;53.692;10.168;2023-02-28T02:44:56;102843.56;;;6.68
27986;BMP280;15453;53.692;10.168;2023-02-28T02:47:24;102849.34;;;6.73
27986;BMP280;15453;53.692;10.168;2023-02-28T02:49:53;102849.34;;;6.73
27986;BMP280;15453;53.692;10.168;2023-02-28T02:52:23;102844.22;;;6.70
27986;BMP280;15453;53.692;10.168;2023-02-28T02:54:52;102857.00;;;6.69
27986;BMP280;15453;53.692;10.168;2023-02-28T02:57:30;102855.28;;;6.68
27986;BMP280;15453;53.692;10.168;2023-02-28T02:59:57;102859.22;;;6.66
27986;BMP280;15453;53.692;10.168;2023-02-28T03:02:25;102850.22;;;6.65
27986;BMP280;15453;53.692;10.168;2023-02-28T03:04:53;102850.22;;;6.65
27986;BMP280;15453;53.692;10.168;2023-02-28T03:07:26;102851.06;;;6.58
27986;BMP280;15453;53.692;10.168;2023-02-28T03:09:52;102863.31;;;6.54
27986;BMP280;15453;53.692;10.168;2023-02-28T03:12:18;102865.53;;;6.50
27986;BMP280;15453;53.692;10.168;2023-02-28T03:14:56;102860.59;;;6.46
27986;BMP280;15453;53.692;10.168;2023-02-28T03:17:29;102850.41;;;6.40
27986;BMP280;15453;53.692;10.168;2023-02-28T03:20:15;102860.63;;;6.38
27986;BMP280;15453;53.692;10.168;2023-02-28T03:22:52;102860.25;;;6.32
27986;BMP280;15453;53.692;10.168;2023-02-28T03:25:25;102862.47;;;6.29
27986;BMP280;15453;53.692;10.168;2023-02-28T03:28:14;102866.56;;;6.25
27986;BMP280;15453;53.692;10.168;2023-02-28T03:30:47;102866.38;;;6.18
27986;BMP280;15453;53.692;10.168;2023-02-28T03:33:27;102867.59;;;6.16
27986;BMP280;15453;53.692;10.168;2023-02-28T03:35:59;102869.09;;;6.10
27986;BMP280;15453;53.692;10.168;2023-02-28T03:38:36;102873.19;;;6.06
27986;BMP280;15453;53.692;10.168;2023-02-28T03:41:13;102881.88;;;6.02
27986;BMP280;15453;53.692;10.168;2023-02-28T03:43:43;102884.22;;;5.97
27986;BMP280;15453;53.692;10.168;2023-02-28T03:46:12;102879.13;;;5.94
27986;BMP280;15453;53.692;10.168;2023-02-28T03:48:49;102883.38;;;5.88
27986;BMP280;15453;53.692;10.168;2023-02-28T03:51:18;102892.16;;;5.82
27986;BMP280;15453;53.692;10.168;2023-02-28T03:54:08;102892.16;;;5.82
27986;BMP280;15453;53.692;10.168;2023-02-28T03:56:38;102886.88;;;5.73
27986;BMP280;15453;53.692;10.168;2023-02-28T03:59:12;102878.16;;;5.69
27986;BMP280;15453;53.692;10.168;2023-02-28T04:01:44;102880.53;;;5.64
27986;BMP280;15453;53.692;10.168;2023-02-28T04:04:10;102881.88;;;5.60
27986;BMP280;15453;53.692;10.168;2023-02-28T04:06:36;102886.81;;;5.57
27986;BMP280;15453;53.692;10.168;2023-02-28T04:09:04;102882.72;;;5.53
27986;BMP280;15453;53.692;10.168;2023-02-28T04:11:34;102880.47;;;5.48
27986;BMP280;15453;53.692;10.168;2023-02-28T04:14:01;102879.25;;;5.43
27986;BMP280;15453;53.692;10.168;2023-02-28T04:16:27;102881.31;;;5.41
27986;BMP280;15453;53.692;10.168;2023-02-28T04:18:53;102890.81;;;5.37
27986;BMP280;15453;53.692;10.168;2023-02-28T04:21:18;102890.81;;;5.37
27986;BMP280;15453;53.692;10.168;2023-02-28T04:23:47;102886.88;;;5.31
27986;BMP280;15453;53.692;10.168;2023-02-28T04:26:12;102886.88;;;5.31
27986;BMP280;15453;53.692;10.168;2023-02-28T04:28:38;102882.94;;;5.26
27986;BMP280;15453;53.692;10.168;2023-02-28T04:31:04;102887.00;;;5.22
27986;BMP280;15453;53.692;10.168;2023-02-28T04:33:31;102887.00;;;5.22
27986;BMP280;15453;53.692;10.168;2023-02-28T04:36:05;102884.94;;;5.16
27986;BMP280;15453;53.692;10.168;2023-02-28T04:38:36;102888.13;;;5.11
27986;BMP280;15453;53.692;10.168;2023-02-28T04:41:02;102892.03;;;5.09
27986;BMP280;15453;53.692;10.168;2023-02-28T04:43:28;102895.91;;;5.06
27986;BMP280;15453;53.692;10.168;2023-02-28T04:45:55;102895.91;;;5.06
27986;BMP280;15453;53.692;10.168;2023-02-28T04:48:23;102899.09;;;5.02
27986;BMP280;15453;53.692;10.168;2023-02-28T04:50:48;102898.44;;;5.00
27986;BMP280;15453;53.692;10.168;2023-02-28T04:53:14;102896.03;;;4.97
27986;BMP280;15453;53.692;10.168;2023-02-28T04:55:39;102896.03;;;4.97
27986;BMP280;15453;53.692;10.168;2023-02-28T04:58:05;102888.22;;;4.94
27986;BMP280;15453;53.692;10.168;2023-02-28T05:00:30;102894.78;;;4.91
27986;BMP280;15453;53.692;10.168;2023-02-28T05:02:56;102904.13;;;4.89
27986;BMP280;15453;53.692;10.168;2023-02-28T05:05:21;102904.13;;;4.89
27986;BMP280;15453;53.692;10.168;2023-02-28T05:07:46;102910.88;;;4.85
27986;BMP280;15453;53.692;10.168;2023-02-28T05:10:12;102910.88;;;4.85
27986;BMP280;15453;53.692;10.168;2023-02-28T05:12:37;102897.94;;;4.79
27986;BMP280;15453;53.692;10.168;2023-02-28T05:15:04;102899.97;;;4.77
27986;BMP280;15453;53.692;10.168;2023-02-28T05:17:30;102896.41;;;4.76
27986;BMP280;15453;53.692;10.168;2023-02-28T05:19:55;102896.41;;;4.76
27986;BMP280;15453;53.692;10.168;2023-02-28T05:22:20;102899.59;;;4.72
27986;BMP280;15453;53.692;10.168;2023-02-28T05:24:45;102899.59;;;4.72
27986;BMP280;15453;53.692;10.168;2023-02-28T05:27:11;102897.53;;;4.66
27986;BMP280;15453;53.692;10.168;2023-02-28T05:29:36;102904.97;;;4.64
27986;BMP280;15453;53.692;10.168;2023-02-28T05:32:10;102905.09;;;4.62
27986;BMP280;15453;53.692;10.168;2023-02-28T05:34:39;102907.16;;;4.60
27986;BMP280;15453;53.692;10.168;2023-02-28T05:37:05;102908.31;;;4.58
27986;BMP280;15453;53.692;10.168;2023-02-28T05:39:31;102905.75;;;4.56
27986;BMP280;15453;53.692;10.168;2023-02-28T05:41:57;102916.91;;;4.53
27986;BMP280;15453;53.692;10.168;2023-02-28T05:44:22;102918.81;;;4.53
27986;BMP280;15453;53.692;10.168;2023-02-28T05:46:48;102918.81;;;4.53
27986;BMP280;15453;53.692;10.168;2023-02-28T05:49:13;102910.28;;;4.48
27986;BMP280;15453;53.692;10.168;2023-02-28T05:51:38;102910.28;;;4.48
27986;BMP280;15453;53.692;10.168;2023-02-28T05:54:05;102911.75;;;4.42
27986;BMP280;15453;53.692;10.168;2023-02-28T05:56:31;102911.75;;;4.42
27986;BMP280;15453;53.692;10.168;2023-02-28T05:58:56;102924.09;;;4.37
27986;BMP280;15453;53.692;10.168;2023-02-28T06:01:43;102924.53;;;4.32
27986;BMP280;15453;53.692;10.168;2023-02-28T06:04:14;102928.13;;;4.33
27986;BMP280;15453;53.692;10.168;2023-02-28T06:06:42;102928.13;;;4.33
27986;BMP280;15453;53.692;10.168;2023-02-28T06:09:08;102932.00;;;4.30
27986;BMP280;15453;53.692;10.168;2023-02-28T06:11:33;102924.88;;;4.29
27986;BMP280;15453;53.692;10.168;2023-02-28T06:14:00;102924.88;;;4.29
27986;BMP280;15453;53.692;10.168;2023-02-28T06:16:27;102925.47;;;4.23
27986;BMP280;15453;53.692;10.168;2023-02-28T06:18:52;102929.22;;;4.22
27986;BMP280;15453;53.692;10.168;2023-02-28T06:21:20;102929.22;;;4.22
27986;BMP280;15453;53.692;10.168;2023-02-28T06:23:45;102923.25;;;4.19
27986;BMP280;15453;53.692;10.168;2023-02-28T06:26:11;102927.97;;;4.17
27986;BMP280;15453;53.692;10.168;2023-02-28T06:28:36;102927.97;;;4.17
27986;BMP280;15453;53.692;10.168;2023-02-28T06:31:13;102930.97;;;4.14
27986;BMP280;15453;53.692;10.168;2023-02-28T06:33:39;102936.88;;;4.09
27986;BMP280;15453;53.692;10.168;2023-02-28T06:36:05;102937.72;;;4.10
27986;BMP280;15453;53.692;10.168;2023-02-28T06:38:32;102941.28;;;4.10
27986;BMP280;15453;53.692;10.168;2023-02-28T06:40:58;102941.28;;;4.10
27986;BMP280;15453;53.692;10.168;2023-02-28T06:43:25;102940.75;;;4.07
27986;BMP280;15453;53.692;10.168;2023-02-28T06:45:50;102942.59;;;4.06
27986;BMP280;15453;53.692;10.168;2023-02-28T06:48:15;102943.63;;;4.05
27986;BMP280;15453;53.692;10.168;2023-02-28T06:50:41;102953.44;;;4.06
27986;BMP280;15453;53.692;10.168;2023-02-28T06:53:06;102950.06;;;4.04
27986;BMP280;15453;53.692;10.168;2023-02-28T06:55:31;102948.19;;;4.05
27986;BMP280;15453;53.692;10.168;2023-02-28T06:57:57;102956.16;;;4.06
27986;BMP280;15453;53.692;10.168;2023-02-28T07:00:24;102949.88;;;4.06
27986;BMP280;15453;53.692;10.168;2023-02-28T07:02:50;102952.44;;;4.07
27986;BMP280;15453;53.692;10.168;2023-02-28T07:05:15;102952.44;;;4.07
27986;BMP280;15453;53.692;10.168;2023-02-28T07:07:40;102939.03;;;4.06
27986;BMP280;15453;53.692;10.168;2023-02-28T07:10:12;102939.44;;;4.11
27986;BMP280;15453;53.692;10.168;2023-02-28T07:12:38;102939.44;;;4.11
27986;BMP280;15453;53.692;10.168;2023-02-28T07:15:05;102954.56;;;4.13
27986;BMP280;15453;53.692;10.168;2023-02-28T07:17:30;102954.56;;;4.13
27986;BMP280;15453;53.692;10.168;2023-02-28T07:19:56;102953.38;;;4.16
27986;BMP280;15453;53.692;10.168;2023-02-28T07:22:21;102953.38;;;4.16
27986;BMP280;15453;53.692;10.168;2023-02-28T07:24:46;102955.38;;;4.14
27986;BMP280;15453;53.692;10.168;2023-02-28T07:27:11;102957.50;;;4.20
27986;BMP280;15453;53.692;10.168;2023-02-28T07:29:36;102957.50;;;4.20
27986;BMP280;15453;53.692;10.168;2023-02-28T07:32:03;102951.94;;;4.21
27986;BMP280;15453;53.692;10.168;2023-02-28T07:34:28;102952.59;;;4.23
27986;BMP280;15453;53.692;10.168;2023-02-28T07:36:54;102954.38;;;4.32
27986;BMP280;15453;53.692;10.168;2023-02-28T07:39:20;102954.38;;;4.32
27986;BMP280;15453;53.692;10.168;2023-02-28T07:41:45;102955.25;;;4.33
27986;BMP280;15453;53.692;10.168;2023-02-28T07:44:11;102955.78;;;4.36
27986;BMP280;15453;53.692;10.168;2023-02-28T07:46:36;102967.28;;;4.48
27986;BMP280;15453;53.692;10.168;2023-02-28T07:49:02;102967.28;;;4.48
27986;BMP280;15453;53.692;10.168;2023-02-28T07:51:28;102963.53;;;4.49
27986;BMP280;15453;53.692;10.168;2023-02-28T07:53:54;102965.78;;;4.53
27986;BMP280;15453;53.692;10.168;2023-02-28T07:56:19;102970.97;;;4.64
27986;BMP280;15453;53.692;10.168;2023-02-28T07:58:44;102970.97;;;4.64
27986;BMP280;15453;53.692;10.168;2023-02-28T08:01:10;102966.28;;;4.74
27986;BMP280;15453;53.692;10.168;2023-02-28T08:03:36;102966.28;;;4.74
27986;BMP280;15453;53.692;10.168;2023-02-28T08:06:03;102964.13;;;4.78
27986;BMP280;15453;53.692;10.168;2023-02-28T08:08:29;102977.13;;;4.92
27986;BMP280;15453;53.692;10.168;2023-02-28T08:10:58;102977.13;;;4.92
27986;BMP280;15453;53.692;10.168;2023-02-28T08:13:23;102966.78;;;4.95
27986;BMP280;15453;53.692;10.168;2023-02-28T08:15:49;102965.16;;;5.02
27986;BMP280;15453;53.692;10.168;2023-02-28T08:18:14;102969.97;;;5.08
27986;BMP280;15453;53.692;10.168;2023-02-28T08:20:39;102969.22;;;5.24
27986;BMP280;15453;53.692;10.168;2023-02-28T08:23:04;102969.22;;;5.24
27986;BMP280;15453;53.692;10.168;2023-02-28T08:25:30;102965.31;;;5.26
27986;BMP280;15453;53.692;10.168;2023-02-28T08:27:55;102976.38;;;5.33
27986;BMP280;15453;53.692;10.168;2023-02-28T08:30:20;102966.59;;;5.40
27986;BMP280;15453;53.692;10.168;2023-02-28T08:32:45;102971.19;;;5.47
27986;BMP280;15453;53.692;10.168;2023-02-28T08:35:11;102964.28;;;5.53
27986;BMP280;15453;53.692;10.168;2023-02-28T08:37:36;102969.91;;;5.59
27986;BMP280;15453;53.692;10.168;2023-02-28T08:40:01;102971.13;;;5.65
27986;BMP280;15453;53.692;10.168;2023-02-28T08:42:27;102969.78;;;5.77
27986;BMP280;15453;53.692;10.168;2023-02-28T08:44:52;102969.78;;;5.77
27986;BMP280;15453;53.692;10.168;2023-02-28T08:47:17;102971.19;;;5.81
27986;BMP280;15453;53.692;10.168;2023-02-28T08:49:43;102969.69;;;5.86
27986;BMP280;15453;53.692;10.168;2023-02-28T08:52:08;102969.88;;;5.93
27986;BMP280;15453;53.692;10.168;2023-02-28T08:54:35;102977.25;;;6.00
27986;BMP280;15453;53.692;10.168;2023-02-28T08:57:00;102973.69;;;6.08
27986;BMP280;15453;53.692;10.168;2023-02-28T08:59:25;102972.00;;;6.15
27986;BMP280;15453;53.692;10.168;2023-02-28T09:01:51;102972.34;;;6.20
27986;BMP280;15453;53.692;10.168;2023-02-28T09:04:16;102970.69;;;6.27
27986;BMP280;15453;53.692;10.168;2023-02-28T09:06:41;102981.91;;;6.32
27986;BMP280;15453;53.692;10.168;2023-02-28T09:09:06;102986.50;;;6.40
27986;BMP280;15453;53.692;10.168;2023-02-28T09:11:34;102982.44;;;6.44
27986;BMP280;15453;53.692;10.168;2023-02-28T09:14:00;102978.19;;;6.49
27986;BMP280;15453;53.692;10.168;2023-02-28T09:16:26;102982.94;;;6.55
27986;BMP280;15453;53.692;10.168;2023-02-28T09:18:51;102975.13;;;6.60
27986;BMP280;15453;53.692;10.168;2023-02-28T09:21:18;102976.16;;;6.67
27986;BMP280;15453;53.692;10.168;2023-02-28T09:23:45;102966.44;;;6.73
27986;BMP280;15453;53.692;10.168;2023-02-28T09:28:40;102971.72;;;6.82
27986;BMP280;15453;53.692;10.168;2023-02-28T09:31:05;102977.34;;;6.89
27986;BMP280;15453;53.692;10.168;2023-02-28T09:33:31;102973.75;;;6.96
27986;BMP280;15453;53.692;10.168;2023-02-28T09:36:00;102978.69;;;7.01
27986;BMP280;15453;53.692;10.168;2023-02-28T09:38:26;102976.31;;;7.06
27986;BMP280;15453;53.692;10.168;2023-02-28T09:40:58;102982.78;;;7.13
27986;BMP280;15453;53.692;10.168;2023-02-28T09:43:26;102978.47;;;7.18
27986;BMP280;15453;53.692;10.168;2023-02-28T09:45:58;102984.09;;;7.25
27986;BMP280;15453;53.692;10.168;2023-02-28T09:48:32;102977.47;;;7.27
27986;BMP280;15453;53.692;10.168;2023-02-28T09:51:26;102977.63;;;7.34
27986;BMP280;15453;53.692;10.168;2023-02-28T09:53:53;102980.50;;;7.40
27986;BMP280;15453;53.692;10.168;2023-02-28T09:56:22;102983.38;;;7.47
27986;BMP280;15453;53.692;10.168;2023-02-28T09:59:11;102988.09;;;7.61
27986;BMP280;15453;53.692;10.168;2023-02-28T10:04:36;102978.38;;;7.66
27986;BMP280;15453;53.692;10.168;2023-02-28T10:07:28;102980.19;;;7.74
27986;BMP280;15453;53.692;10.168;2023-02-28T10:09:59;102982.00;;;7.89
27986;BMP280;15453;53.692;10.168;2023-02-28T10:12:29;102982.00;;;7.89
27986;BMP280;15453;53.692;10.168;2023-02-28T10:14:57;102971.78;;;7.91
27986;BMP280;15453;53.692;10.168;2023-02-28T10:17:26;102979.22;;;7.97
27986;BMP280;15453;53.692;10.168;2023-02-28T10:20:05;102973.25;;;8.02
27986;BMP280;15453;53.692;10.168;2023-02-28T10:22:53;102972.91;;;8.05
27986;BMP280;15453;53.692;10.168;2023-02-28T10:25:23;102979.72;;;8.09
27986;BMP280;15453;53.692;10.168;2023-02-28T10:27:53;102968.22;;;8.13
27986;BMP280;15453;53.692;10.168;2023-02-28T10:30:18;102969.56;;;8.17
27986;BMP280;15453;53.692;10.168;2023-02-28T10:32:49;102972.66;;;8.22
27986;BMP280;15453;53.692;10.168;2023-02-28T10:37:44;102976.25;;;8.45
27986;BMP280;15453;53.692;10.168;2023-02-28T10:42:55;102966.84;;;8.48
27986;BMP280;15453;53.692;10.168;2023-02-28T10:45:21;102974.31;;;8.54
27986;BMP280;15453;53.692;10.168;2023-02-28T10:47:54;102976.97;;;8.62
27986;BMP280;15453;53.692;10.168;2023-02-28T10:50:27;102976.09;;;8.69
27986;BMP280;15453;53.692;10.168;2023-02-28T10:52:53;102968.38;;;8.73
27986;BMP280;15453;53.692;10.168;2023-02-28T10:55:22;102970.91;;;8.74
27986;BMP280;15453;53.692;10.168;2023-02-28T10:57:49;102978.53;;;8.79
27986;BMP280;15453;53.692;10.168;2023-02-28T11:00:18;102968.47;;;8.79
27986;BMP280;15453;53.692;10.168;2023-02-28T11:02:44;102978.88;;;8.84
27986;BMP280;15453;53.692;10.168;2023-02-28T11:05:37;102976.91;;;8.92
27986;BMP280;15453;53.692;10.168;2023-02-28T11:08:14;102976.91;;;8.92
27986;BMP280;15453;53.692;10.168;2023-02-28T11:10:44;102969.66;;;8.99
27986;BMP280;15453;53.692;10.168;2023-02-28T11:13:17;102958.84;;;9.06
27986;BMP280;15453;53.692;10.168;2023-02-28T11:15:51;102966.97;;;9.14
27986;BMP280;15453;53.692;10.168;2023-02-28T11:18:28;102963.66;;;9.18
27986;BMP280;15453;53.692;10.168;2023-02-28T11:20:55;102961.41;;;9.22
27986;BMP280;15453;53.692;10.168;2023-02-28T11:23:25;102961.16;;;9.31
27986;BMP280;15453;53.692;10.168;2023-02-28T11:25:54;102963.75;;;9.39
27986;BMP280;15453;53.692;10.168;2023-02-28T11:28:33;102955.00;;;9.44
27986;BMP280;15453;53.692;10.168;2023-02-28T11:36:11;102941.41;;;9.65
27986;BMP280;15453;53.692;10.168;2023-02-28T11:38:37;102943.69;;;9.61
27986;BMP280;15453;53.692;10.168;2023-02-28T11:46:47;102932.53;;;9.92
27986;BMP280;15453;53.692;10.168;2023-02-28T11:49:28;102932.38;;;10.00
27986;BMP280;15453;53.692;10.168;2023-02-28T11:54:56;102931.34;;;10.15
27986;BMP280;15453;53.692;10.168;2023-02-28T12:00:30;102925.34;;;10.26
27986;BMP280;15453;53.692;10.168;2023-02-28T12:03:11;102915.13;;;10.35
27986;BMP280;15453;53.692;10.168;2023-02-28T12:05:45;102910.34;;;10.43
27986;BMP280;15453;53.692;10.168;2023-02-28T12:14:06;102904.72;;;10.72
27986;BMP280;15453;53.692;10.168;2023-02-28T12:19:24;102891.66;;;10.74
27986;BMP280;15453;53.692;10.168;2023-02-28T12:22:12;102893.41;;;10.82
27986;BMP280;15453;53.692;10.168;2023-02-28T12:27:34;102881.69;;;10.94
27986;BMP280;15453;53.692;10.168;2023-02-28T12:32:37;102875.69;;;11.12
27986;BMP280;15453;53.692;10.168;2023-02-28T12:35:11;102870.03;;;11.20
27986;BMP280;15453;53.692;10.168;2023-02-28T12:40:19;102860.19;;;11.32
27986;BMP280;15453;53.692;10.168;2023-02-28T12:43:06;102862.59;;;11.48
27986;BMP280;15453;53.692;10.168;2023-02-28T12:45:41;102862.59;;;11.48
27986;BMP280;15453;53.692;10.168;2023-02-28T12:48:14;102857.34;;;11.53
27986;BMP280;15453;53.692;10.168;2023-02-28T12:50:40;102848.97;;;11.61
27986;BMP280;15453;53.692;10.168;2023-02-28T12:53:12;102839.28;;;11.65
27986;BMP280;15453;53.692;10.168;2023-02-28T12:55:59;102843.28;;;11.69
27986;BMP280;15453;53.692;10.168;2023-02-28T12:58:45;102837.19;;;11.73
27986;BMP280;15453;53.692;10.168;2023-02-28T13:06:44;102837.44;;;11.92
27986;BMP280;15453;53.692;10.168;2023-02-28T13:09:14;102835.78;;;11.97
27986;BMP280;15453;53.692;10.168;2023-02-28T13:11:46;102826.50;;;12.05
27986;BMP280;15453;53.692;10.168;2023-02-28T13:14:30;102822.28;;;12.09
27986;BMP280;15453;53.692;10.168;2023-02-28T13:19:33;102820.38;;;12.16
27986;BMP280;15453;53.692;10.168;2023-02-28T13:22:00;102817.00;;;12.20
27986;BMP280;15453;53.692;10.168;2023-02-28T13:24:44;102809.59;;;12.21
27986;BMP280;15453;53.692;10.168;2023-02-28T13:29:39;102798.22;;;12.24
27986;BMP280;15453;53.692;10.168;2023-02-28T13:39:49;102803.50;;;12.32
27986;BMP280;15453;53.692;10.168;2023-02-28T13:47:41;102802.22;;;12.34
27986;BMP280;15453;53.692;10.168;2023-02-28T13:50:29;102801.78;;;12.31
27986;BMP280;15453;53.692;10.168;2023-02-28T13:59:06;102804.13;;;12.14
27986;BMP280;15453;53.692;10.168;2023-02-28T14:01:51;102810.00;;;12.05
27986;BMP280;15453;53.692;10.168;2023-02-28T14:06:56;102820.75;;;11.87
27986;BMP280;15453;53.692;10.168;2023-02-28T14:09:29;102818.22;;;11.85
27986;BMP280;15453;53.692;10.168;2023-02-28T14:11:56;102818.22;;;11.85
27986;BMP280;15453;53.692;10.168;2023-02-28T14:16:59;102826.63;;;11.77
27986;BMP280;15453;53.692;10.168;2023-02-28T14:19:26;102821.56;;;11.74
27986;BMP280;15453;53.692;10.168;2023-02-28T14:27:20;102822.41;;;11.68
27986;BMP280;15453;53.692;10.168;2023-02-28T14:35:40;102817.72;;;11.62
27986;BMP280;15453;53.692;10.168;2023-02-28T14:38:16;102820.84;;;11.52
27986;BMP280;15453;53.692;10.168;2023-02-28T14:40:43;102822.09;;;11.50
27986;BMP280;15453;53.692;10.168;2023-02-28T14:43:21;102830.25;;;11.43
27986;BMP280;15453;53.692;10.168;2023-02-28T14:45:50;102819.50;;;11.35
27986;BMP280;15453;53.692;10.168;2023-02-28T14:48:17;102823.69;;;11.31
27986;BMP280;15453;53.692;10.168;2023-02-28T14:50:49;102819.88;;;11.26
27986;BMP280;15453;53.692;10.168;2023-02-28T14:53:18;102818.78;;;11.20
27986;BMP280;15453;53.692;10.168;2023-02-28T14:55:46;102818.78;;;11.20
27986;BMP280;15453;53.692;10.168;2023-02-28T15:00:49;102814.72;;;11.10
27986;BMP280;15453;53.692;10.168;2023-02-28T15:03:35;102817.66;;;11.08
27986;BMP280;15453;53.692;10.168;2023-02-28T15:06:12;102811.28;;;11.01
27986;BMP280;15453;53.692;10.168;2023-02-28T15:08:38;102807.91;;;10.99
27986;BMP280;15453;53.692;10.168;2023-02-28T15:11:11;102807.00;;;10.92
27986;BMP280;15453;53.692;10.168;2023-02-28T15:13:42;102807.00;;;10.92
27986;BMP280;15453;53.692;10.168;2023-02-28T15:16:14;102803.41;;;10.85
27986;BMP280;15453;53.692;10.168;2023-02-28T15:21:25;102804.84;;;10.81
27986;BMP280;15453;53.692;10.168;2023-02-28T15:23:56;102787.09;;;10.77
27986;BMP280;15453;53.692;10.168;2023-02-28T15:26:27;102795.53;;;10.76
27986;BMP280;15453;53.692;10.168;2023-02-28T15:28:59;102790.03;;;10.76
27986;BMP280;15453;53.692;10.168;2023-02-28T15:31:30;102791.72;;;10.77
27986;BMP280;15453;53.692;10.168;2023-02-28T15:33:58;102793.41;;;10.78
27986;BMP280;15453;53.692;10.168;2023-02-28T15:36:29;102787.53;;;10.81
27986;BMP280;15453;53.692;10.168;2023-02-28T15:38:56;102799.38;;;10.81
27986;BMP280;15453;53.692;10.168;2023-02-28T15:41:28;102785.44;;;10.83
27986;BMP280;15453;53.692;10.168;2023-02-28T15:44:13;102787.16;;;10.84
27986;BMP280;15453;53.692;10.168;2023-02-28T15:47:01;102781.00;;;10.82
27986;BMP280;15453;53.692;10.168;2023-02-28T15:49:28;102781.84;;;10.82